createdAt,value
2022-10-20T00:00:06.938Z,748
2022-10-20T00:01:06.953Z,742
2022-10-20T00:02:06.933Z,745
2022-10-20T00:03:07.059Z,736
2022-10-20T00:04:06.932Z,735
2022-10-20T00:05:06.927Z,740
2022-10-20T00:06:06.928Z,735
2022-10-20T00:07:06.927Z,745
2022-10-20T00:08:06.966Z,737
2022-10-20T00:09:07.007Z,730
2022-10-20T00:10:06.934Z,734
2022-10-20T00:11:06.921Z,738
2022-10-20T00:12:06.917Z,737
2022-10-20T00:13:06.932Z,731
2022-10-20T00:14:06.932Z,734
2022-10-20T00:15:06.919Z,737
2022-10-20T00:16:06.929Z,750
2022-10-20T00:17:06.940Z,736
2022-10-20T00:18:06.916Z,734
2022-10-20T00:19:07.488Z,744
2022-10-20T00:20:06.983Z,732
2022-10-20T00:21:06.913Z,735
2022-10-20T00:22:07.026Z,735
2022-10-20T00:23:06.924Z,736
2022-10-20T00:24:06.921Z,735
2022-10-20T00:25:06.907Z,742
2022-10-20T00:26:06.922Z,741
2022-10-20T00:27:06.911Z,740
2022-10-20T00:28:06.904Z,737
2022-10-20T00:29:06.964Z,740
2022-10-20T00:30:06.906Z,751
2022-10-20T00:31:06.919Z,733
2022-10-20T00:32:06.897Z,738
2022-10-20T00:33:06.905Z,738
2022-10-20T00:34:06.896Z,732
2022-10-20T00:35:06.918Z,730
2022-10-20T00:36:06.908Z,732
2022-10-20T00:37:06.891Z,737
2022-10-20T00:38:06.901Z,735
2022-10-20T00:39:06.897Z,733
2022-10-20T00:40:06.891Z,740
2022-10-20T00:41:06.907Z,739
2022-10-20T00:42:06.886Z,735
2022-10-20T00:43:06.882Z,739
2022-10-20T00:44:06.902Z,742
2022-10-20T00:45:06.899Z,748
2022-10-20T00:46:06.885Z,729
2022-10-20T00:47:06.886Z,737
2022-10-20T00:48:06.892Z,736
2022-10-20T00:49:06.891Z,731
2022-10-20T00:50:06.882Z,729
2022-10-20T00:51:06.921Z,735
2022-10-20T00:52:06.892Z,730
2022-10-20T00:53:06.883Z,735
2022-10-20T00:54:06.872Z,739
2022-10-20T00:55:06.876Z,739
2022-10-20T00:56:06.893Z,726
2022-10-20T00:57:06.894Z,738
2022-10-20T00:58:06.879Z,748
2022-10-20T00:59:06.877Z,735
2022-10-20T01:00:06.880Z,732
2022-10-20T01:01:06.867Z,739
2022-10-20T01:02:07.012Z,735
2022-10-20T01:03:06.895Z,727
2022-10-20T01:04:06.858Z,707
2022-10-20T01:05:06.856Z,725
2022-10-20T01:06:06.905Z,731
2022-10-20T01:07:06.903Z,728
2022-10-20T01:08:06.861Z,713
2022-10-20T01:09:06.975Z,730
2022-10-20T01:10:06.859Z,723
2022-10-20T01:11:06.850Z,729
2022-10-20T01:12:06.848Z,722
2022-10-20T01:13:06.852Z,727
2022-10-20T01:14:06.862Z,729
2022-10-20T01:15:06.884Z,732
2022-10-20T01:16:06.865Z,739
2022-10-20T01:17:06.844Z,734
2022-10-20T01:18:06.854Z,726
2022-10-20T01:19:06.847Z,725
2022-10-20T01:20:06.862Z,728
2022-10-20T01:21:06.844Z,727
2022-10-20T01:22:06.838Z,709
2022-10-20T01:23:07.108Z,725
2022-10-20T01:24:06.845Z,730
2022-10-20T01:25:06.849Z,730
2022-10-20T01:26:06.834Z,727
2022-10-20T01:27:06.872Z,733
2022-10-20T01:28:06.844Z,736
2022-10-20T01:29:06.829Z,737
2022-10-20T01:30:06.835Z,743
2022-10-20T01:31:06.833Z,743
2022-10-20T01:32:06.861Z,737
2022-10-20T01:33:06.832Z,736
2022-10-20T01:34:06.846Z,730
2022-10-20T01:35:06.824Z,751
2022-10-20T01:36:06.839Z,734
2022-10-20T01:37:06.840Z,731
2022-10-20T01:38:06.846Z,743
2022-10-20T01:39:06.844Z,732
2022-10-20T01:40:06.823Z,740
2022-10-20T01:41:06.820Z,742
2022-10-20T01:42:06.838Z,737
2022-10-20T01:43:06.817Z,740
2022-10-20T01:44:06.839Z,732
2022-10-20T01:45:06.823Z,741
2022-10-20T01:46:06.817Z,741
2022-10-20T01:47:06.817Z,749
2022-10-20T01:48:06.811Z,747
2022-10-20T01:49:06.842Z,753
2022-10-20T01:50:06.812Z,747
2022-10-20T01:51:06.809Z,752
2022-10-20T01:52:06.843Z,739
2022-10-20T01:53:06.807Z,737
2022-10-20T01:54:06.807Z,743
2022-10-20T01:55:06.881Z,740
2022-10-20T01:56:06.799Z,736
2022-10-20T01:57:06.815Z,734
2022-10-20T01:58:06.809Z,735
2022-10-20T01:59:06.798Z,740
2022-10-20T02:00:06.792Z,739
2022-10-20T02:01:06.792Z,743
2022-10-20T02:02:06.813Z,744
2022-10-20T02:03:06.788Z,740
2022-10-20T02:04:06.788Z,741
2022-10-20T02:05:06.791Z,742
2022-10-20T02:06:06.805Z,745
2022-10-20T02:07:06.798Z,733
2022-10-20T02:08:06.784Z,738
2022-10-20T02:09:06.794Z,733
2022-10-20T02:10:06.785Z,738
2022-10-20T02:11:06.823Z,744
2022-10-20T02:12:06.806Z,744
2022-10-20T02:13:06.786Z,743
2022-10-20T02:14:06.787Z,738
2022-10-20T02:15:06.785Z,737
2022-10-20T02:16:06.813Z,744
2022-10-20T02:17:06.783Z,740
2022-10-20T02:18:06.780Z,738
2022-10-20T02:19:06.783Z,739
2022-10-20T02:20:06.786Z,740
2022-10-20T02:21:06.795Z,738
2022-10-20T02:22:06.788Z,746
2022-10-20T02:23:06.801Z,749
2022-10-20T02:24:06.778Z,743
2022-10-20T02:25:06.783Z,736
2022-10-20T02:26:06.771Z,731
2022-10-20T02:27:06.791Z,729
2022-10-20T02:28:06.772Z,733
2022-10-20T02:29:06.773Z,724
2022-10-20T02:30:06.778Z,729
2022-10-20T02:31:06.763Z,727
2022-10-20T02:32:06.777Z,722
2022-10-20T02:33:06.755Z,741
2022-10-20T02:34:06.763Z,731
2022-10-20T02:35:07.044Z,731
2022-10-20T02:36:06.755Z,726
2022-10-20T02:37:06.809Z,739
2022-10-20T02:38:06.758Z,738
2022-10-20T02:39:06.749Z,734
2022-10-20T02:40:06.766Z,729
2022-10-20T02:41:06.751Z,731
2022-10-20T02:42:06.752Z,734
2022-10-20T02:43:06.784Z,734
2022-10-20T02:44:06.744Z,723
2022-10-20T02:45:06.769Z,730
2022-10-20T02:46:06.831Z,732
2022-10-20T02:47:06.761Z,725
2022-10-20T02:48:07.938Z,731
2022-10-20T02:49:06.737Z,725
2022-10-20T02:50:06.741Z,740
2022-10-20T02:51:06.749Z,728
2022-10-20T02:52:06.738Z,725
2022-10-20T02:53:06.734Z,724
2022-10-20T02:54:06.745Z,731
2022-10-20T02:55:06.792Z,730
2022-10-20T02:56:06.745Z,724
2022-10-20T02:57:06.731Z,728
2022-10-20T02:58:06.724Z,730
2022-10-20T02:59:06.774Z,727
2022-10-20T03:00:06.751Z,720
2022-10-20T03:01:06.725Z,729
2022-10-20T03:02:06.841Z,734
2022-10-20T03:03:06.739Z,724
2022-10-20T03:04:06.761Z,732
2022-10-20T03:05:06.722Z,730
2022-10-20T03:06:06.715Z,736
2022-10-20T03:07:06.718Z,729
2022-10-20T03:08:06.729Z,722
2022-10-20T03:09:06.728Z,730
2022-10-20T03:10:06.725Z,717
2022-10-20T03:11:06.720Z,715
2022-10-20T03:12:06.716Z,718
2022-10-20T03:13:06.723Z,720
2022-10-20T03:14:06.721Z,722
2022-10-20T03:15:06.746Z,730
2022-10-20T03:16:06.710Z,733
2022-10-20T03:17:06.719Z,725
2022-10-20T03:18:06.711Z,727
2022-10-20T03:19:09.097Z,716
2022-10-20T03:20:06.708Z,733
2022-10-20T03:21:06.710Z,721
2022-10-20T03:22:06.719Z,719
2022-10-20T03:23:06.731Z,728
2022-10-20T03:24:06.707Z,718
2022-10-20T03:25:06.711Z,731
2022-10-20T03:26:06.694Z,720
2022-10-20T03:27:06.696Z,717
2022-10-20T03:28:06.706Z,724
2022-10-20T03:29:06.695Z,728
2022-10-20T03:30:06.693Z,728
2022-10-20T03:31:06.712Z,722
2022-10-20T03:32:06.693Z,727
2022-10-20T03:33:06.702Z,745
2022-10-20T03:34:06.717Z,727
2022-10-20T03:35:06.692Z,715
2022-10-20T03:36:06.687Z,720
2022-10-20T03:37:06.681Z,725
2022-10-20T03:38:06.697Z,729
2022-10-20T03:39:06.683Z,733
2022-10-20T03:40:06.687Z,740
2022-10-20T03:41:06.684Z,733
2022-10-20T03:42:06.692Z,745
2022-10-20T03:43:06.695Z,738
2022-10-20T03:44:06.684Z,737
2022-10-20T03:45:06.675Z,726
2022-10-20T03:46:06.681Z,732
2022-10-20T03:47:06.713Z,733
2022-10-20T03:48:06.677Z,726
2022-10-20T03:49:06.682Z,729
2022-10-20T03:50:06.683Z,716
2022-10-20T03:51:06.677Z,720
2022-10-20T03:52:06.679Z,719
2022-10-20T03:53:06.668Z,716
2022-10-20T03:54:06.676Z,729
2022-10-20T03:55:06.660Z,720
2022-10-20T03:56:06.674Z,719
2022-10-20T03:57:07.863Z,718
2022-10-20T03:58:06.664Z,720
2022-10-20T03:59:06.676Z,725
2022-10-20T04:00:06.659Z,722
2022-10-20T04:01:06.677Z,735
2022-10-20T04:02:06.749Z,722
2022-10-20T04:03:06.685Z,717
2022-10-20T04:04:06.658Z,721
2022-10-20T04:05:06.688Z,719
2022-10-20T04:06:06.660Z,713
2022-10-20T04:07:06.654Z,725
2022-10-20T04:08:06.688Z,730
2022-10-20T04:09:06.743Z,735
2022-10-20T04:10:06.664Z,725
2022-10-20T04:11:06.649Z,732
2022-10-20T04:12:06.644Z,727
2022-10-20T04:13:07.404Z,742
2022-10-20T04:14:06.656Z,744
2022-10-20T04:15:06.676Z,718
2022-10-20T04:16:06.636Z,719
2022-10-20T04:17:06.633Z,709
2022-10-20T04:18:06.638Z,700
2022-10-20T04:19:06.665Z,707
2022-10-20T04:20:06.648Z,720
2022-10-20T04:21:06.648Z,706
2022-10-20T04:22:06.650Z,829
2022-10-20T04:23:06.661Z,810
2022-10-20T04:24:06.638Z,940
2022-10-20T04:25:06.635Z,815
2022-10-20T04:26:06.660Z,814
2022-10-20T04:27:06.623Z,749
2022-10-20T04:28:06.637Z,767
2022-10-20T04:29:06.623Z,764
2022-10-20T04:30:06.620Z,778
2022-10-20T04:31:06.642Z,817
2022-10-20T04:32:06.637Z,803
2022-10-20T04:33:06.637Z,809
2022-10-20T04:34:06.616Z,789
2022-10-20T04:35:06.641Z,814
2022-10-20T04:36:06.615Z,827
2022-10-20T04:37:06.615Z,1037
2022-10-20T04:38:06.633Z,920
2022-10-20T04:39:06.607Z,874
2022-10-20T04:40:06.610Z,889
2022-10-20T04:41:06.616Z,990
2022-10-20T04:42:06.611Z,979
2022-10-20T04:43:06.628Z,969
2022-10-20T04:44:06.610Z,1065
2022-10-20T04:45:06.618Z,916
2022-10-20T04:46:08.437Z,920
2022-10-20T04:47:06.608Z,891
2022-10-20T04:48:06.614Z,896
2022-10-20T04:49:06.599Z,940
2022-10-20T04:50:06.613Z,992
2022-10-20T04:51:06.632Z,992
2022-10-20T04:52:06.595Z,959
2022-10-20T04:53:06.638Z,954
2022-10-20T04:54:06.606Z,944
2022-10-20T04:55:06.603Z,954
2022-10-20T04:56:06.596Z,957
2022-10-20T04:57:06.587Z,963
2022-10-20T04:58:06.601Z,1076
2022-10-20T04:59:09.659Z,994
2022-10-20T05:00:06.593Z,952
2022-10-20T05:01:06.586Z,950
2022-10-20T05:02:06.694Z,959
2022-10-20T05:03:06.660Z,980
2022-10-20T05:04:06.592Z,992
2022-10-20T05:05:06.583Z,977
2022-10-20T05:06:06.588Z,983
2022-10-20T05:07:06.618Z,967
2022-10-20T05:08:06.599Z,966
2022-10-20T05:09:06.663Z,960
2022-10-20T05:10:06.580Z,999
2022-10-20T05:11:06.573Z,972
2022-10-20T05:12:06.640Z,968
2022-10-20T05:13:06.579Z,1000
2022-10-20T05:14:06.585Z,1034
2022-10-20T05:15:06.564Z,1006
2022-10-20T05:16:06.652Z,999
2022-10-20T05:17:09.301Z,951
2022-10-20T05:18:06.570Z,921
2022-10-20T05:19:06.582Z,934
2022-10-20T05:20:06.568Z,1000
2022-10-20T05:21:09.400Z,948
2022-10-20T05:22:06.563Z,934
2022-10-20T05:23:06.623Z,986
2022-10-20T05:24:06.586Z,1008
2022-10-20T05:25:35.172Z,977
2022-10-20T05:26:06.561Z,960
2022-10-20T05:27:06.560Z,986
2022-10-20T05:28:06.554Z,970
2022-10-20T05:29:06.567Z,947
2022-10-20T05:30:06.573Z,991
2022-10-20T05:31:06.554Z,973
2022-10-20T05:32:06.559Z,974
2022-10-20T05:33:06.556Z,977
2022-10-20T05:34:06.588Z,993
2022-10-20T05:35:06.546Z,1014
2022-10-20T05:36:06.545Z,972
2022-10-20T05:37:06.547Z,947
2022-10-20T05:38:06.555Z,1004
2022-10-20T05:39:06.582Z,966
2022-10-20T05:40:06.546Z,963
2022-10-20T05:41:06.548Z,969
2022-10-20T05:42:06.544Z,970
2022-10-20T05:43:06.545Z,1010
2022-10-20T05:44:06.557Z,978
2022-10-20T05:45:06.535Z,1004
2022-10-20T05:46:06.548Z,1000
2022-10-20T05:47:06.529Z,973
2022-10-20T05:48:06.555Z,961
2022-10-20T05:49:06.531Z,1008
2022-10-20T05:50:06.533Z,1001
2022-10-20T05:51:08.387Z,995
2022-10-20T05:52:06.552Z,963
2022-10-20T05:53:06.523Z,959
2022-10-20T05:54:06.526Z,967
2022-10-20T05:55:06.550Z,979
2022-10-20T05:56:06.526Z,988
2022-10-20T05:57:06.545Z,990
2022-10-20T05:58:06.522Z,1004
2022-10-20T05:59:06.523Z,1048
2022-10-20T06:00:06.536Z,1035
2022-10-20T06:01:06.519Z,1010
2022-10-20T06:02:06.528Z,986
2022-10-20T06:03:06.517Z,1024
2022-10-20T06:04:06.514Z,1001
2022-10-20T06:05:06.529Z,1012
2022-10-20T06:06:06.512Z,1035
2022-10-20T06:07:06.535Z,1020
2022-10-20T06:08:06.509Z,1053
2022-10-20T06:09:06.528Z,1025
2022-10-20T06:10:06.504Z,1034
2022-10-20T06:11:06.541Z,1036
2022-10-20T06:13:06.531Z,1036
2022-10-20T06:14:06.503Z,1015
2022-10-20T06:15:06.526Z,1029
2022-10-20T06:16:06.504Z,1033
2022-10-20T06:17:06.518Z,1034
2022-10-20T06:18:06.510Z,1023
2022-10-20T06:19:06.495Z,1090
2022-10-20T06:20:06.495Z,1103
2022-10-20T06:21:06.511Z,1089
2022-10-20T06:22:07.057Z,1049
2022-10-20T06:23:06.528Z,1037
2022-10-20T06:24:06.510Z,1091
2022-10-20T06:25:06.487Z,1172
2022-10-20T06:26:06.497Z,1150
2022-10-20T06:27:06.525Z,1075
2022-10-20T06:28:06.487Z,1041
2022-10-20T06:29:06.502Z,1065
2022-10-20T06:30:06.491Z,1092
2022-10-20T06:31:06.486Z,1049
2022-10-20T06:32:06.539Z,1036
2022-10-20T06:33:06.481Z,1105
2022-10-20T06:34:06.529Z,1134
2022-10-20T06:35:06.474Z,1159
2022-10-20T06:36:06.490Z,1135
2022-10-20T06:37:06.497Z,1044
2022-10-20T06:38:06.479Z,1067
2022-10-20T06:39:06.472Z,1167
2022-10-20T06:40:06.477Z,1130
2022-10-20T06:41:06.475Z,1139
2022-10-20T06:42:09.588Z,1095
2022-10-20T06:43:06.501Z,1092
2022-10-20T06:44:06.499Z,1122
2022-10-20T06:45:06.474Z,1148
2022-10-20T06:46:06.473Z,1123
2022-10-20T06:47:06.508Z,1165
2022-10-20T06:48:06.477Z,1128
2022-10-20T06:49:06.465Z,1119
2022-10-20T06:50:06.463Z,1134
2022-10-20T06:51:06.457Z,1136
2022-10-20T06:52:06.519Z,1187
2022-10-20T06:53:06.463Z,1193
2022-10-20T06:54:06.473Z,1169
2022-10-20T06:55:06.457Z,1183
2022-10-20T06:56:06.468Z,1224
2022-10-20T06:57:06.469Z,1219
2022-10-20T06:58:06.466Z,1224
2022-10-20T06:59:06.483Z,1216
2022-10-20T07:00:06.449Z,1249
2022-10-20T07:01:09.989Z,1251
2022-10-20T07:02:06.574Z,1260
2022-10-20T07:03:06.439Z,1268
2022-10-20T07:04:06.439Z,1304
2022-10-20T07:05:06.440Z,1255
2022-10-20T07:06:06.442Z,1286
2022-10-20T07:07:06.455Z,1276
2022-10-20T07:08:06.458Z,1294
2022-10-20T07:09:06.507Z,1302
2022-10-20T07:10:06.479Z,1327
2022-10-20T07:11:06.455Z,1332
2022-10-20T07:12:06.438Z,1354
2022-10-20T07:13:06.445Z,1357
2022-10-20T07:14:06.452Z,1359
2022-10-20T07:15:06.469Z,1309
2022-10-20T07:16:06.438Z,1341
2022-10-20T07:17:06.432Z,1356
2022-10-20T07:18:06.500Z,1342
2022-10-20T07:19:06.431Z,1337
2022-10-20T07:20:06.451Z,1341
2022-10-20T07:21:06.472Z,1406
2022-10-20T07:22:06.441Z,1362
2022-10-20T07:23:06.476Z,1396
2022-10-20T07:24:06.425Z,1376
2022-10-20T07:25:06.420Z,1337
2022-10-20T07:26:06.431Z,1371
2022-10-20T07:27:06.432Z,1372
2022-10-20T07:28:06.436Z,1382
2022-10-20T07:29:06.423Z,1412
2022-10-20T07:30:06.422Z,1411
2022-10-20T07:31:06.449Z,1414
2022-10-20T07:32:06.437Z,1460
2022-10-20T07:33:06.427Z,1390
2022-10-20T07:34:12.853Z,1408
2022-10-20T07:35:06.413Z,1514
2022-10-20T07:36:06.403Z,1460
2022-10-20T07:37:06.426Z,1413
2022-10-20T07:38:06.411Z,1412
2022-10-20T07:39:06.443Z,1499
2022-10-20T07:40:06.407Z,1475
2022-10-20T07:41:06.402Z,1466
2022-10-20T07:42:06.412Z,1470
2022-10-20T07:43:06.407Z,1504
2022-10-20T07:44:06.400Z,1494
2022-10-20T07:45:06.399Z,1487
2022-10-20T07:46:06.396Z,1450
2022-10-20T07:47:06.439Z,1468
2022-10-20T07:48:06.393Z,1472
2022-10-20T07:49:38.255Z,1489
2022-10-20T07:50:06.415Z,1502
2022-10-20T07:51:06.416Z,1524
2022-10-20T07:52:06.401Z,1552
2022-10-20T07:53:06.389Z,1517
2022-10-20T07:54:06.423Z,1523
2022-10-20T07:55:17.689Z,1490
2022-10-20T07:56:06.384Z,1483
2022-10-20T07:57:06.382Z,1490
2022-10-20T07:58:06.393Z,1509
2022-10-20T07:59:06.431Z,1509
2022-10-20T08:00:06.380Z,1513
2022-10-20T08:01:06.378Z,1502
2022-10-20T08:02:06.420Z,1543
2022-10-20T08:03:06.421Z,1503
2022-10-20T08:04:06.462Z,1541
2022-10-20T08:05:06.380Z,1533
2022-10-20T08:06:06.375Z,1537
2022-10-20T08:07:06.388Z,1506
2022-10-20T08:08:06.379Z,1545
2022-10-20T08:09:06.504Z,1498
2022-10-20T08:10:06.384Z,1499
2022-10-20T08:11:06.367Z,1494
2022-10-20T08:12:06.382Z,1510
2022-10-20T08:13:06.363Z,1472
2022-10-20T08:14:06.359Z,1482
2022-10-20T08:15:07.388Z,1511
2022-10-20T08:16:06.389Z,1509
2022-10-20T08:17:06.378Z,1518
2022-10-20T08:18:06.363Z,1475
2022-10-20T08:19:06.446Z,1454
2022-10-20T08:20:07.384Z,1498
2022-10-20T08:21:06.361Z,1523
2022-10-20T08:22:06.352Z,1515
2022-10-20T08:23:06.387Z,1495
2022-10-20T08:24:06.365Z,1505
2022-10-20T08:25:06.379Z,1519
2022-10-20T08:26:10.638Z,1509
2022-10-20T08:27:06.352Z,1537
2022-10-20T08:28:06.366Z,1466
2022-10-20T08:29:06.368Z,1480
2022-10-20T08:30:22.926Z,1456
2022-10-20T08:31:06.339Z,1499
2022-10-20T08:32:06.338Z,1519
2022-10-20T08:33:06.359Z,1523
2022-10-20T08:34:06.339Z,1517
2022-10-20T08:35:06.360Z,1530
2022-10-20T08:36:06.341Z,1466
2022-10-20T08:37:06.391Z,1509
2022-10-20T08:38:06.351Z,1483
2022-10-20T08:39:06.629Z,1554
2022-10-20T08:40:06.336Z,1594
2022-10-20T08:41:06.335Z,1523
2022-10-20T08:42:09.314Z,1433
2022-10-20T08:43:06.350Z,1531
2022-10-20T08:44:06.329Z,1478
2022-10-20T08:45:06.334Z,1488
2022-10-20T08:46:06.392Z,1429
2022-10-20T08:47:06.339Z,1522
2022-10-20T08:48:06.325Z,1539
2022-10-20T08:49:06.338Z,1502
2022-10-20T08:50:06.345Z,1493
2022-10-20T08:51:06.352Z,1531
2022-10-20T08:52:06.332Z,1477
2022-10-20T08:53:06.331Z,1551
2022-10-20T08:54:06.334Z,1503
2022-10-20T08:55:06.328Z,1509
2022-10-20T08:56:06.314Z,1500
2022-10-20T08:57:06.315Z,1529
2022-10-20T08:58:06.342Z,1488
2022-10-20T08:59:06.325Z,1580
2022-10-20T09:00:08.995Z,1515
2022-10-20T09:01:06.334Z,1517
2022-10-20T09:02:06.361Z,1508
2022-10-20T09:03:06.336Z,1471
2022-10-20T09:04:06.323Z,1477
2022-10-20T09:05:06.342Z,1446
2022-10-20T09:06:06.384Z,1458
2022-10-20T09:07:06.351Z,1462
2022-10-20T09:08:06.315Z,1492
2022-10-20T09:09:06.398Z,1455
2022-10-20T09:10:06.339Z,1407
2022-10-20T09:11:06.318Z,1359
2022-10-20T09:12:06.332Z,1346
2022-10-20T09:13:06.316Z,1336
2022-10-20T09:14:06.325Z,1324
2022-10-20T09:15:06.316Z,1343
2022-10-20T09:16:06.309Z,1358
2022-10-20T09:17:09.155Z,1333
2022-10-20T09:18:06.320Z,1312
2022-10-20T09:19:06.311Z,1323
2022-10-20T09:20:06.324Z,1317
2022-10-20T09:21:06.331Z,1301
2022-10-20T09:22:06.304Z,1326
2022-10-20T09:23:16.473Z,1330
2022-10-20T09:24:06.305Z,1349
2022-10-20T09:25:06.305Z,1338
2022-10-20T09:26:06.314Z,1332
2022-10-20T09:27:06.313Z,1342
2022-10-20T09:28:06.301Z,1328
2022-10-20T09:29:13.109Z,1310
2022-10-20T09:30:06.334Z,1334
2022-10-20T09:31:06.289Z,1360
2022-10-20T09:32:28.028Z,1352
2022-10-20T09:33:06.313Z,1360
2022-10-20T09:34:06.291Z,1370
2022-10-20T09:35:06.290Z,1352
2022-10-20T09:36:06.368Z,1349
2022-10-20T09:37:06.289Z,1358
2022-10-20T09:38:06.288Z,1393
2022-10-20T09:39:06.323Z,1362
2022-10-20T09:40:06.285Z,1391
2022-10-20T09:41:06.286Z,1395
2022-10-20T09:42:06.297Z,1398
2022-10-20T09:43:06.284Z,1361
2022-10-20T09:44:06.278Z,1365
2022-10-20T09:45:06.274Z,1372
2022-10-20T09:46:06.320Z,1372
2022-10-20T09:47:06.291Z,1355
